Map

Track Data

SID SEASON NUMBER BASIN SUBBASIN NAME ISO_TIME NATURE LAT LON WMO_WIND WMO_PRES WMO_AGENCY TRACK_TYPE DIST2LAND LANDFALL IFLAG USA_AGENCY USA_ATCF_ID USA_LAT USA_LON USA_RECORD USA_STATUS USA_WIND USA_PRES USA_SSHS USA_R34_NE USA_R34_SE USA_R34_SW USA_R34_NW USA_R50_NE USA_R50_SE USA_R50_SW USA_R50_NW USA_R64_NE USA_R64_SE USA_R64_SW USA_R64_NW USA_POCI USA_ROCI USA_RMW USA_EYE TOKYO_LAT TOKYO_LON TOKYO_GRADE TOKYO_WIND TOKYO_PRES TOKYO_R50_DIR TOKYO_R50_LONG TOKYO_R50_SHORT TOKYO_R30_DIR TOKYO_R30_LONG TOKYO_R30_SHORT TOKYO_LAND CMA_LAT CMA_LON CMA_CAT CMA_WIND CMA_PRES HKO_LAT HKO_LON HKO_CAT HKO_WIND HKO_PRES NEWDELHI_LAT NEWDELHI_LON NEWDELHI_GRADE NEWDELHI_WIND NEWDELHI_PRES NEWDELHI_CI NEWDELHI_DP NEWDELHI_POCI REUNION_LAT REUNION_LON REUNION_TYPE REUNION_WIND REUNION_PRES REUNION_TNUM REUNION_CI REUNION_RMW REUNION_R34_NE REUNION_R34_SE REUNION_R34_SW REUNION_R34_NW REUNION_R50_NE REUNION_R50_SE REUNION_R50_SW REUNION_R50_NW REUNION_R64_NE REUNION_R64_SE REUNION_R64_SW REUNION_R64_NW BOM_LAT BOM_LON BOM_TYPE BOM_WIND BOM_PRES BOM_TNUM BOM_CI BOM_RMW BOM_R34_NE BOM_R34_SE BOM_R34_SW BOM_R34_NW BOM_R50_NE BOM_R50_SE BOM_R50_SW BOM_R50_NW BOM_R64_NE BOM_R64_SE BOM_R64_SW BOM_R64_NW BOM_ROCI BOM_POCI BOM_EYE BOM_POS_METHOD BOM_PRES_METHOD NADI_LAT NADI_LON NADI_CAT NADI_WIND NADI_PRES WELLINGTON_LAT WELLINGTON_LON WELLINGTON_WIND WELLINGTON_PRES DS824_LAT DS824_LON DS824_STAGE DS824_WIND DS824_PRES TD9636_LAT TD9636_LON TD9636_STAGE TD9636_WIND TD9636_PRES TD9635_LAT TD9635_LON TD9635_WIND TD9635_PRES TD9635_ROCI NEUMANN_LAT NEUMANN_LON NEUMANN_CLASS NEUMANN_WIND NEUMANN_PRES MLC_LAT MLC_LON MLC_CLASS MLC_WIND MLC_PRES USA_GUST BOM_GUST BOM_GUST_PER REUNION_GUST REUNION_GUST_PER USA_SEAHGT USA_SEARAD_NE USA_SEARAD_SE USA_SEARAD_SW USA_SEARAD_NW STORM_SPEED STORM_DIR
1902172N17268 1902 20 NA NA NOT_NAMED 1902-06-21 00:00:00 TS 17.2000 -92.1000 25 hurdat_atl main 0 0 O_____________ hurdat_atl AL021902 17.2000 -92.1000 TD 25 -1 5 324
1902172N17268 1902 20 NA NA NOT_NAMED 1902-06-21 03:00:00 TS 17.3950 -92.2475 main 0 0 P_____________ AL021902 17.3950 -92.2475 TD 25 -1 5 325
1902172N17268 1902 20 NA NA NOT_NAMED 1902-06-21 06:00:00 TS 17.6000 -92.4000 25 hurdat_atl main 0 0 O_____________ hurdat_atl AL021902 17.6000 -92.4000 TD 25 -1 5 325
1902172N17268 1902 20 NA NA NOT_NAMED 1902-06-21 09:00:00 TS 17.8150 -92.5575 main 0 0 P_____________ AL021902 17.8150 -92.5575 TD 25 -1 5 325
1902172N17268 1902 20 NA NA NOT_NAMED 1902-06-21 12:00:00 TS 18.0000 -92.7000 25 hurdat_atl main 0 0 O_____________ hurdat_atl AL021902 18.0000 -92.7000 TD 25 -1 4 321
1902172N17268 1902 20 NA NA NOT_NAMED 1902-06-21 15:00:00 TS 18.1150 -92.8150 main 0 0 P_____________ AL021902 18.1150 -92.8150 TD 25 -1 3 316
1902172N17268 1902 20 NA NA NOT_NAMED 1902-06-21 18:00:00 TS 18.2000 -92.9000 25 hurdat_atl main 0 0 O_____________ hurdat_atl AL021902 18.2000 -92.9000 TD 25 -1 2 324
1902172N17268 1902 20 NA NA NOT_NAMED 1902-06-21 21:00:00 TS 18.2925 -92.9501 main 0 0 P_____________ AL021902 18.2925 -92.9501 TD 27 -1 2 333
1902172N17268 1902 20 NA NA NOT_NAMED 1902-06-22 00:00:00 TS 18.4000 -93.0000 30 hurdat_atl main 0 0 O_____________ hurdat_atl AL021902 18.4000 -93.0000 TD 30 -1 3 333
1902172N17268 1902 20 NA GM NOT_NAMED 1902-06-22 03:00:00 TS 18.5425 -93.0850 main 15 15 P_____________ AL021902 18.5425 -93.0850 TD 30 -1 4 328
1902172N17268 1902 20 NA GM NOT_NAMED 1902-06-22 06:00:00 TS 18.7000 -93.2000 30 hurdat_atl main 39 39 O_____________ hurdat_atl AL021902 18.7000 -93.2000 TD 30 -1 4 322
1902172N17268 1902 20 NA GM NOT_NAMED 1902-06-22 09:00:00 TS 18.8575 -93.3500 main 64 64 P_____________ AL021902 18.8575 -93.3500 TD 30 -1 4 317
1902172N17268 1902 20 NA GM NOT_NAMED 1902-06-22 12:00:00 TS 19.0000 -93.5000 30 hurdat_atl main 78 78 O_____________ hurdat_atl AL021902 19.0000 -93.5000 TD 30 -1 3 315
1902172N17268 1902 20 NA GM NOT_NAMED 1902-06-22 15:00:00 TS 19.1000 -93.6076 main 89 89 P_____________ AL021902 19.1000 -93.6076 TD 30 -1 3 316
1902172N17268 1902 20 NA GM NOT_NAMED 1902-06-22 18:00:00 TS 19.2000 -93.7000 30 hurdat_atl main 100 100 O_____________ hurdat_atl AL021902 19.2000 -93.7000 TD 30 -1 3 324
1902172N17268 1902 20 NA GM NOT_NAMED 1902-06-22 21:00:00 TS 19.3500 -93.8000 main 111 111 P_____________ AL021902 19.3500 -93.8000 TD 30 -1 4 328
1902172N17268 1902 20 NA GM NOT_NAMED 1902-06-23 00:00:00 TS 19.5000 -93.9000 30 hurdat_atl main 134 134 O_____________ hurdat_atl AL021902 19.5000 -93.9000 TD 30 -1 3 323
1902172N17268 1902 20 NA GM NOT_NAMED 1902-06-23 03:00:00 TS 19.6000 -94.0000 main 145 145 P_____________ AL021902 19.6000 -94.0000 TD 30 -1 3 316
1902172N17268 1902 20 NA GM NOT_NAMED 1902-06-23 06:00:00 TS 19.7000 -94.1000 30 hurdat_atl main 155 155 O_____________ hurdat_atl AL021902 19.7000 -94.1000 TD 30 -1 3 322
1902172N17268 1902 20 NA GM NOT_NAMED 1902-06-23 09:00:00 TS 19.8425 -94.2000 main 158 158 P_____________ AL021902 19.8425 -94.2000 TD 30 -1 4 328
1902172N17268 1902 20 NA GM NOT_NAMED 1902-06-23 12:00:00 TS 20.0000 -94.3000 30 hurdat_atl main 172 172 O_____________ hurdat_atl AL021902 20.0000 -94.3000 TD 30 -1 4 329
1902172N17268 1902 20 NA GM NOT_NAMED 1902-06-23 15:00:00 TS 20.1575 -94.4075 main 187 183 P_____________ AL021902 20.1575 -94.4075 TD 30 -1 4 328
1902172N17268 1902 20 NA GM NOT_NAMED 1902-06-23 18:00:00 TS 20.3000 -94.5000 30 hurdat_atl main 193 193 O_____________ hurdat_atl AL021902 20.3000 -94.5000 TD 30 -1 3 332
1902172N17268 1902 20 NA GM NOT_NAMED 1902-06-23 21:00:00 TS 20.4075 -94.5500 main 196 196 P_____________ AL021902 20.4075 -94.5500 TD 30 -1 2 333
1902172N17268 1902 20 NA GM NOT_NAMED 1902-06-24 00:00:00 TS 20.5000 -94.6000 30 hurdat_atl main 199 193 O_____________ hurdat_atl AL021902 20.5000 -94.6000 TD 30 -1 2 324
1902172N17268 1902 20 NA GM NOT_NAMED 1902-06-24 03:00:00 TS 20.5925 -94.6925 main 193 184 P_____________ AL021902 20.5925 -94.6925 TD 30 -1 3 317
1902172N17268 1902 20 NA GM NOT_NAMED 1902-06-24 06:00:00 TS 20.7000 -94.8000 30 hurdat_atl main 189 185 O_____________ hurdat_atl AL021902 20.7000 -94.8000 TD 30 -1 3 322
1902172N17268 1902 20 NA GM NOT_NAMED 1902-06-24 09:00:00 TS 20.8275 -94.8926 main 185 183 P_____________ AL021902 20.8275 -94.8926 TD 32 -1 4 329
1902172N17268 1902 20 NA GM NOT_NAMED 1902-06-24 12:00:00 TS 21.0000 -95.0000 35 hurdat_atl main 190 190 O_____________ hurdat_atl AL021902 21.0000 -95.0000 TS 35 0 5 330
1902172N17268 1902 20 NA GM NOT_NAMED 1902-06-24 15:00:00 TS 21.2275 -95.1425 main 198 190 P_____________ AL021902 21.2275 -95.1425 TS 37 0 6 331
1902172N17268 1902 20 NA GM NOT_NAMED 1902-06-24 18:00:00 TS 21.5000 -95.3000 40 hurdat_atl main 205 196 O_____________ hurdat_atl AL021902 21.5000 -95.3000 TS 40 0 6 334
1902172N17268 1902 20 NA GM NOT_NAMED 1902-06-24 21:00:00 TS 21.7925 -95.4426 main 197 181 P_____________ AL021902 21.7925 -95.4426 TS 42 0 7 335
1902172N17268 1902 20 NA GM NOT_NAMED 1902-06-25 00:00:00 TS 22.1000 -95.6000 45 hurdat_atl main 184 173 O_____________ hurdat_atl AL021902 22.1000 -95.6000 TS 45 0 7 331
1902172N17268 1902 20 NA GM NOT_NAMED 1902-06-25 03:00:00 TS 22.4000 -95.8000 main 178 174 P_____________ AL021902 22.4000 -95.8000 TS 47 0 7 328
1902172N17268 1902 20 NA GM NOT_NAMED 1902-06-25 06:00:00 TS 22.7000 -96.0000 50 hurdat_atl main 181 173 O_____________ hurdat_atl AL021902 22.7000 -96.0000 TS 50 0 7 331
1902172N17268 1902 20 NA GM NOT_NAMED 1902-06-25 09:00:00 TS 23.0000 -96.1576 main 163 153 P_____________ AL021902 23.0000 -96.1576 TS 52 0 7 335
1902172N17268 1902 20 NA GM NOT_NAMED 1902-06-25 12:00:00 TS 23.3000 -96.3000 55 hurdat_atl main 153 142 O_____________ hurdat_atl AL021902 23.3000 -96.3000 TS 55 0 6 335
1902172N17268 1902 20 NA GM NOT_NAMED 1902-06-25 15:00:00 TS 23.5850 -96.4576 main 132 121 P_____________ AL021902 23.5850 -96.4576 TS 57 0 7 335
1902172N17268 1902 20 NA GM NOT_NAMED 1902-06-25 18:00:00 TS 23.9000 -96.6000 60 hurdat_atl main 121 103 O_____________ hurdat_atl AL021902 23.9000 -96.6000 TS 60 0 7 342
1902172N17268 1902 20 NA GM NOT_NAMED 1902-06-25 21:00:00 TS 24.2850 -96.7150 main 103 78 P_____________ AL021902 24.2850 -96.7150 TS 62 0 8 347
1902172N17268 1902 20 NA GM NOT_NAMED 1902-06-26 00:00:00 TS 24.7000 -96.8000 65 hurdat_atl main 78 51 O_____________ hurdat_atl AL021902 24.7000 -96.8000 HU 65 1 8 351
1902172N17268 1902 20 NA GM NOT_NAMED 1902-06-26 03:00:00 TS 25.0925 -96.8576 main 51 32 P_____________ AL021902 25.0925 -96.8576 HU 67 1 8 354
1902172N17268 1902 20 NA GM NOT_NAMED 1902-06-26 06:00:00 TS 25.5000 -96.9000 70 hurdat_atl main 32 22 O_____________ hurdat_atl AL021902 25.5000 -96.9000 HU 70 1 9 355
1902172N17268 1902 20 NA GM NOT_NAMED 1902-06-26 09:00:00 TS 25.9500 -96.9500 main 9 9 P_____________ AL021902 25.9500 -96.9500 HU 67 1 9 355
1902172N17268 1902 20 NA GM NOT_NAMED 1902-06-26 12:00:00 TS 26.4000 -97.0000 65 hurdat_atl main 31 31 O_____________ hurdat_atl AL021902 26.4000 -97.0000 HU 65 1 8 354
1902172N17268 1902 20 NA GM NOT_NAMED 1902-06-26 15:00:00 TS 26.7863 -97.0399 main 45 31 P_____________ AL021902 26.7863 -97.0399 HU 62 0 8 354
1902172N17268 1902 20 NA GM NOT_NAMED 1902-06-26 18:00:00 TS 27.2000 -97.1000 60 hurdat_atl main 31 9 O_____________ hurdat_atl AL021902 27.2000 -97.1000 TS 60 0 9 351
1902172N17268 1902 20 NA GM NOT_NAMED 1902-06-26 21:00:00 TS 27.7000 -97.2000 60 hurdat_atl main 9 0 O_____________ hurdat_atl AL021902 27.7000 -97.2000 L TS 60 0 9 355
1902172N17268 1902 20 NA GM NOT_NAMED 1902-06-27 00:00:00 TS 28.1000 -97.2000 50 hurdat_atl main 0 0 O_____________ hurdat_atl AL021902 28.1000 -97.2000 TS 50 0 8 358
1902172N17268 1902 20 NA NA NOT_NAMED 1902-06-27 03:00:00 TS 28.5330 -97.2397 main 0 0 P_____________ AL021902 28.5330 -97.2397 TS 47 0 9 355
1902172N17268 1902 20 NA NA NOT_NAMED 1902-06-27 06:00:00 TS 29.0000 -97.3000 45 hurdat_atl main 0 0 O_____________ hurdat_atl AL021902 29.0000 -97.3000 TS 45 0 9 353
1902172N17268 1902 20 NA NA NOT_NAMED 1902-06-27 09:00:00 TS 29.4550 -97.3721 main 0 0 P_____________ AL021902 29.4550 -97.3721 TS 42 0 10 355
1902172N17268 1902 20 NA NA NOT_NAMED 1902-06-27 12:00:00 TS 30.0000 -97.4000 40 hurdat_atl main 0 0 O_____________ hurdat_atl AL021902 30.0000 -97.4000 TS 40 0 13 0
1902172N17268 1902 20 NA NA NOT_NAMED 1902-06-27 15:00:00 TS 30.7274 -97.3522 main 0 0 P_____________ AL021902 30.7274 -97.3522 TS 37 0 15 7
1902172N17268 1902 20 NA NA NOT_NAMED 1902-06-27 18:00:00 TS 31.5000 -97.2000 35 hurdat_atl main 0 0 O_____________ hurdat_atl AL021902 31.5000 -97.2000 TS 35 0 15 14
1902172N17268 1902 20 NA NA NOT_NAMED 1902-06-27 21:00:00 TS 32.1575 -96.9374 main 0 0 P_____________ AL021902 32.1575 -96.9374 TS 35 0 14 21
1902172N17268 1902 20 NA NA NOT_NAMED 1902-06-28 00:00:00 TS 32.8000 -96.6000 35 hurdat_atl main 0 0 O_____________ hurdat_atl AL021902 32.8000 -96.6000 TS 35 0 14 22
1902172N17268 1902 20 NA NA NOT_NAMED 1902-06-28 03:00:00 TS 33.4769 -96.3080 main 0 0 P_____________ AL021902 33.4769 -96.3080 TS 35 0 15 23
1902172N17268 1902 20 NA NA NOT_NAMED 1902-06-28 06:00:00 TS 34.2000 -95.9000 35 hurdat_atl main 0 0 O_____________ hurdat_atl AL021902 34.2000 -95.9000 TS 35 0 17 29
1902172N17268 1902 20 NA NA NOT_NAMED 1902-06-28 09:00:00 TS 34.9692 -95.3104 main 0 0 P_____________ AL021902 34.9692 -95.3104 TS 35 0 20 36
1902172N17268 1902 20 NA NA NOT_NAMED 1902-06-28 12:00:00 ET 35.8000 -94.5000 35 hurdat_atl main 0 0 O_____________ hurdat_atl AL021902 35.8000 -94.5000 EX 35 -4 22 40
1902172N17268 1902 20 NA NA NOT_NAMED 1902-06-28 15:00:00 ET 36.6742 -93.5675 main 0 0 P_____________ AL021902 36.6742 -93.5675 EX 35 -4 25 44
1902172N17268 1902 20 NA NA NOT_NAMED 1902-06-28 18:00:00 ET 37.6000 -92.3000 35 hurdat_atl main 0 0 O_____________ hurdat_atl AL021902 37.6000 -92.3000 EX 35 -4 31 51
1902172N17268 1902 20 NA NA NOT_NAMED 1902-06-28 21:00:00 ET 38.6059 -90.5306 main 0 0 P_____________ AL021902 38.6059 -90.5306 EX 35 -4 35 57
1902172N17268 1902 20 NA NA NOT_NAMED 1902-06-29 00:00:00 ET 39.5000 -88.6000 35 hurdat_atl main 0 0 O_____________ hurdat_atl AL021902 39.5000 -88.6000 EX 35 -4 31 61
1902172N17268 1902 20 NA NA NOT_NAMED 1902-06-29 03:00:00 ET 40.1203 -86.9705 main 0 0 P_____________ AL021902 40.1203 -86.9705 EX 35 -4 27 66
1902172N17268 1902 20 NA NA NOT_NAMED 1902-06-29 06:00:00 ET 40.6000 -85.4000 35 hurdat_atl main 0 0 O_____________ hurdat_atl AL021902 40.6000 -85.4000 EX 35 -4 27 68
1902172N17268 1902 20 NA NA NOT_NAMED 1902-06-29 09:00:00 ET 41.1081 -83.7154 main 0 0 P_____________ AL021902 41.1081 -83.7154 EX 35 -4 27 71
1902172N17268 1902 20 NA NA NOT_NAMED 1902-06-29 12:00:00 ET 41.5000 -82.0000 35 hurdat_atl main 0 0 O_____________ hurdat_atl AL021902 41.5000 -82.0000 EX 35 -4 26 77
1902172N17268 1902 20 NA NA NOT_NAMED 1902-06-29 15:00:00 ET 41.7096 -80.2941 main 0 0 P_____________ AL021902 41.7096 -80.2941 EX 35 -4 26 83
1902172N17268 1902 20 NA NA NOT_NAMED 1902-06-29 18:00:00 ET 41.8000 -78.6000 35 hurdat_atl main 0 O_____________ hurdat_atl AL021902 41.8000 -78.6000 EX 35 -4 25 86

About IBTrACS Database

This database is a web-friendly format of International Best Track Archive for Climate Stewardship (IBTrACS), a global best track data archive curated by NOAA dating back to 1842.

Updated: 2021-12-01